createdAt,value
2017-10-03T00:00:52.302Z,100423
2017-10-03T00:03:18.519Z,100420
2017-10-03T00:05:44.732Z,100421
2017-10-03T00:08:10.970Z,100421
2017-10-03T00:10:37.161Z,100425
2017-10-03T00:13:03.364Z,100434
2017-10-03T00:15:30.359Z,100434
2017-10-03T00:17:56.582Z,100425
2017-10-03T00:20:22.780Z,100429
2017-10-03T00:22:49.277Z,100416
2017-10-03T00:25:15.620Z,100416
2017-10-03T00:27:42.573Z,100402
2017-10-03T00:30:09.540Z,100411
2017-10-03T00:32:35.930Z,100412
2017-10-03T00:35:02.175Z,100417
2017-10-03T00:37:29.159Z,100419
2017-10-03T00:39:55.474Z,100415
2017-10-03T00:42:21.699Z,100408
2017-10-03T00:44:47.925Z,100405
2017-10-03T00:47:14.183Z,100409
2017-10-03T00:49:40.412Z,100417
2017-10-03T00:52:06.640Z,100428
2017-10-03T00:54:32.986Z,100431
2017-10-03T00:56:59.210Z,100438
2017-10-03T00:59:25.474Z,100439
2017-10-03T01:01:51.832Z,100434
2017-10-03T01:04:18.043Z,100430
2017-10-03T01:06:45.003Z,100424
2017-10-03T01:09:11.252Z,100434
2017-10-03T01:11:37.497Z,100435
2017-10-03T01:14:04.580Z,100416
2017-10-03T01:16:30.810Z,100421
2017-10-03T01:18:57.810Z,100422
2017-10-03T01:21:31.516Z,100424
2017-10-03T01:23:57.787Z,100424
2017-10-03T01:26:24.155Z,100421
2017-10-03T01:28:50.418Z,100427
2017-10-03T01:31:16.671Z,100427
2017-10-03T01:33:42.904Z,100435
2017-10-03T01:36:09.910Z,100435
2017-10-03T01:38:36.223Z,100440
2017-10-03T01:41:02.481Z,100437
2017-10-03T01:43:29.021Z,100433
2017-10-03T01:45:55.266Z,100436
2017-10-03T01:48:21.513Z,100437
2017-10-03T01:50:48.721Z,100431
2017-10-03T01:53:14.975Z,100440
2017-10-03T01:55:41.199Z,100433
2017-10-03T01:58:07.587Z,100434
2017-10-03T02:00:33.848Z,100428
2017-10-03T02:03:00.084Z,100434
2017-10-03T02:05:26.346Z,100439
2017-10-03T02:07:52.579Z,100441
2017-10-03T02:10:18.817Z,100429
2017-10-03T02:12:45.058Z,100437
2017-10-03T02:15:11.287Z,100431
2017-10-03T02:17:37.509Z,100442
2017-10-03T02:20:03.790Z,100449
2017-10-03T02:22:30.014Z,100451
2017-10-03T02:24:56.229Z,100453
2017-10-03T02:27:22.470Z,100448
2017-10-03T02:29:48.782Z,100449
2017-10-03T02:32:15.313Z,100445
2017-10-03T02:34:41.546Z,100439
2017-10-03T02:37:07.773Z,100442
2017-10-03T02:39:34.038Z,100447
2017-10-03T02:42:01.010Z,100445
2017-10-03T02:44:27.256Z,100449
2017-10-03T02:46:53.515Z,100451
2017-10-03T02:49:19.742Z,100449
2017-10-03T02:51:45.966Z,100454
2017-10-03T02:54:12.233Z,100454
2017-10-03T02:56:39.213Z,100459
2017-10-03T02:59:05.440Z,100458
2017-10-03T03:01:31.679Z,100458
2017-10-03T03:03:57.919Z,100459
2017-10-03T03:06:25.284Z,100457
2017-10-03T03:08:51.537Z,100463
2017-10-03T03:11:18.524Z,100467
2017-10-03T03:13:44.773Z,100465
2017-10-03T03:16:11.002Z,100461
2017-10-03T03:18:37.238Z,100461
2017-10-03T03:21:03.657Z,100462
2017-10-03T03:23:29.890Z,100451
2017-10-03T03:25:56.157Z,100455
2017-10-03T03:28:23.214Z,100456
2017-10-03T03:30:49.447Z,100460
2017-10-03T03:33:15.674Z,100465
2017-10-03T03:35:42.152Z,100471
2017-10-03T03:38:08.382Z,100469
2017-10-03T03:40:34.605Z,100470
2017-10-03T03:43:01.606Z,100481
2017-10-03T03:45:27.841Z,100477
2017-10-03T03:47:54.078Z,100474
2017-10-03T03:50:20.341Z,100467
2017-10-03T03:52:46.595Z,100470
2017-10-03T03:55:12.839Z,100478
2017-10-03T03:57:39.855Z,100483
2017-10-03T04:00:06.353Z,100475
2017-10-03T04:02:32.606Z,100479
2017-10-03T04:04:58.885Z,100482
2017-10-03T04:07:25.855Z,100484
2017-10-03T04:09:52.076Z,100486
2017-10-03T04:12:18.342Z,100487
2017-10-03T04:14:45.351Z,100486
2017-10-03T04:17:11.603Z,100487
2017-10-03T04:19:38.145Z,100482
2017-10-03T04:22:04.418Z,100482
2017-10-03T04:24:31.393Z,100480
2017-10-03T04:26:57.659Z,100488
2017-10-03T04:29:23.901Z,100485
2017-10-03T04:31:50.261Z,100492
2017-10-03T04:34:16.482Z,100492
2017-10-03T04:36:43.450Z,100493
2017-10-03T04:39:09.724Z,100490
2017-10-03T04:41:35.973Z,100490
2017-10-03T04:44:02.937Z,100487
2017-10-03T04:46:29.277Z,100488
2017-10-03T04:48:55.507Z,100488
2017-10-03T04:51:21.746Z,100486
2017-10-03T04:53:48.209Z,100485
2017-10-03T04:56:14.445Z,100485
2017-10-03T04:58:40.687Z,100485
2017-10-03T05:01:06.969Z,100485
2017-10-03T05:03:33.194Z,100482
2017-10-03T05:05:59.439Z,100482
2017-10-03T05:08:25.692Z,100483
2017-10-03T05:10:51.915Z,100485
2017-10-03T05:13:18.138Z,100481
2017-10-03T05:15:44.410Z,100482
2017-10-03T05:18:11.368Z,100481
2017-10-03T05:20:37.582Z,100481
2017-10-03T05:23:04.890Z,100484
2017-10-03T05:25:31.137Z,100488
2017-10-03T05:27:57.374Z,100492
2017-10-03T05:30:24.350Z,100494
2017-10-03T05:32:50.585Z,100498
2017-10-03T05:35:17.167Z,100501
2017-10-03T05:37:43.405Z,100499
2017-10-03T05:40:09.614Z,100504
2017-10-03T05:42:36.141Z,100501
2017-10-03T05:45:02.369Z,100511
2017-10-03T05:47:28.610Z,100510
2017-10-03T05:49:54.861Z,100512
2017-10-03T05:52:21.825Z,100517
2017-10-03T05:54:48.061Z,100523
2017-10-03T05:57:14.287Z,100524
2017-10-03T05:59:40.521Z,100525
2017-10-03T06:02:06.785Z,100533
2017-10-03T06:04:33.013Z,100534
2017-10-03T06:06:59.238Z,100541
2017-10-03T06:09:25.533Z,100530
2017-10-03T06:11:51.760Z,100548
2017-10-03T06:14:17.980Z,100549
2017-10-03T06:16:44.465Z,100545
2017-10-03T06:19:10.702Z,100546
2017-10-03T06:21:36.930Z,100548
2017-10-03T06:24:03.186Z,100549
2017-10-03T06:26:30.146Z,100558
2017-10-03T06:28:56.410Z,100564
2017-10-03T06:31:23.057Z,100567
2017-10-03T06:33:49.300Z,100570
2017-10-03T06:36:15.541Z,100572
2017-10-03T06:38:41.802Z,100575
2017-10-03T06:41:08.669Z,100583
2017-10-03T06:43:35.218Z,100587
2017-10-03T06:46:01.761Z,100585
2017-10-03T06:48:28.027Z,100589
2017-10-03T06:50:55.056Z,100593
2017-10-03T06:53:22.245Z,100603
2017-10-03T06:55:49.185Z,100600
2017-10-03T06:58:15.980Z,100609
2017-10-03T07:00:42.285Z,100609
2017-10-03T07:03:08.507Z,100607
2017-10-03T07:05:34.742Z,100606
2017-10-03T07:08:01.026Z,100616
2017-10-03T07:10:28.873Z,100622
2017-10-03T07:12:55.113Z,100616
2017-10-03T07:15:22.294Z,100631
2017-10-03T07:17:48.510Z,100624
2017-10-03T07:20:14.776Z,100624
2017-10-03T07:22:42.397Z,100626
2017-10-03T07:25:08.628Z,100634
2017-10-03T07:27:34.850Z,100628
2017-10-03T07:30:01.574Z,100638
2017-10-03T07:32:28.949Z,100636
2017-10-03T07:34:55.186Z,100633
2017-10-03T07:37:21.542Z,100637
2017-10-03T07:39:48.019Z,100641
2017-10-03T07:42:15.234Z,100640
2017-10-03T07:44:41.505Z,100647
2017-10-03T07:47:08.473Z,100642
2017-10-03T07:49:34.711Z,100659
2017-10-03T07:52:01.225Z,100661
2017-10-03T07:54:27.452Z,100661
2017-10-03T07:56:54.419Z,100665
2017-10-03T07:59:20.707Z,100674
2017-10-03T08:01:47.042Z,100679
2017-10-03T08:04:14.034Z,100679
2017-10-03T08:06:40.262Z,100695
2017-10-03T08:09:06.480Z,100702
2017-10-03T08:11:33.044Z,100704
2017-10-03T08:13:59.274Z,100705
2017-10-03T08:16:26.242Z,100714
2017-10-03T08:18:52.489Z,100717
2017-10-03T08:21:19.497Z,100723
2017-10-03T08:23:45.721Z,100722
2017-10-03T08:26:11.972Z,100721
2017-10-03T08:28:38.199Z,100726
2017-10-03T08:31:04.457Z,100718
2017-10-03T08:33:31.637Z,100724
2017-10-03T08:35:57.858Z,100733
2017-10-03T08:38:24.101Z,100726
2017-10-03T08:40:50.340Z,100741
2017-10-03T08:43:16.569Z,100747
2017-10-03T08:45:42.848Z,100760
2017-10-03T08:48:09.998Z,100763
2017-10-03T08:50:36.998Z,100775
2017-10-03T08:53:03.228Z,100775
2017-10-03T08:55:29.510Z,100772
2017-10-03T08:57:55.734Z,100778
2017-10-03T09:00:21.973Z,100769
2017-10-03T09:02:48.237Z,100769
2017-10-03T09:05:14.490Z,100778
2017-10-03T09:07:40.713Z,100772
2017-10-03T09:10:07.328Z,100779
2017-10-03T09:12:33.562Z,100783
2017-10-03T09:14:59.818Z,100794
2017-10-03T09:17:26.921Z,100793
2017-10-03T09:19:53.150Z,100792
2017-10-03T09:22:19.412Z,100798
2017-10-03T09:24:45.645Z,100794
2017-10-03T09:27:12.261Z,100808
2017-10-03T09:29:38.513Z,100812
2017-10-03T09:32:14.286Z,100807
2017-10-03T09:34:41.319Z,100811
2017-10-03T09:37:08.303Z,100810
2017-10-03T09:39:34.633Z,100816
2017-10-03T09:42:00.873Z,100818
2017-10-03T09:44:27.106Z,100817
2017-10-03T09:46:53.400Z,100821
2017-10-03T09:49:19.651Z,100820
2017-10-03T09:51:45.896Z,100817
2017-10-03T09:54:12.153Z,100817
2017-10-03T09:56:38.381Z,100823
2017-10-03T09:59:04.622Z,100822
2017-10-03T10:01:31.598Z,100825
2017-10-03T10:03:58.068Z,100835
2017-10-03T10:06:24.301Z,100836
2017-10-03T10:08:50.518Z,100843
2017-10-03T10:11:16.798Z,100852
2017-10-03T10:13:43.793Z,100848
2017-10-03T10:16:10.026Z,100857
2017-10-03T10:18:36.521Z,100867
2017-10-03T10:21:02.773Z,100873
2017-10-03T10:23:28.993Z,100875
2017-10-03T10:25:55.263Z,100867
2017-10-03T10:28:21.546Z,100862
2017-10-03T10:30:47.789Z,100869
2017-10-03T10:33:14.541Z,100874
2017-10-03T10:35:40.793Z,100875
2017-10-03T10:38:07.043Z,100877
2017-10-03T10:40:34.043Z,100873
2017-10-03T10:43:00.290Z,100874
2017-10-03T10:45:26.562Z,100874
2017-10-03T10:47:52.926Z,100878
2017-10-03T10:50:19.168Z,100884
2017-10-03T10:52:45.414Z,100892
2017-10-03T10:55:12.032Z,100901
2017-10-03T10:57:39.006Z,100902
2017-10-03T11:00:05.983Z,100903
2017-10-03T11:02:32.289Z,100904
2017-10-03T11:04:59.265Z,100907
2017-10-03T11:07:25.494Z,100907
2017-10-03T11:09:51.774Z,100911
2017-10-03T11:12:18.097Z,100908
2017-10-03T11:14:44.329Z,100917
2017-10-03T11:17:10.588Z,100917
2017-10-03T11:19:36.877Z,100914
2017-10-03T11:22:03.161Z,100917
2017-10-03T11:24:41.726Z,100921
2017-10-03T11:27:07.985Z,100924
2017-10-03T11:29:34.956Z,100935
2017-10-03T11:32:01.190Z,100941
2017-10-03T11:34:27.440Z,100946
2017-10-03T11:36:53.678Z,100972
2017-10-03T11:39:19.910Z,100959
2017-10-03T11:41:46.182Z,100951
2017-10-03T11:44:12.414Z,100944
2017-10-03T11:46:38.632Z,100962
2017-10-03T11:49:05.734Z,100968
2017-10-03T11:51:31.969Z,100981
2017-10-03T11:53:58.201Z,100982
2017-10-03T11:56:24.456Z,100989
2017-10-03T11:58:51.419Z,100984
2017-10-03T12:01:17.685Z,100947
2017-10-03T12:03:43.949Z,100965
2017-10-03T12:06:10.918Z,100972
2017-10-03T12:08:37.145Z,100974
2017-10-03T12:11:03.399Z,100978
2017-10-03T12:13:29.670Z,100976
2017-10-03T12:15:55.893Z,100981
2017-10-03T12:18:22.188Z,100980
2017-10-03T12:20:48.414Z,100974
2017-10-03T12:23:14.633Z,100981
2017-10-03T12:25:40.980Z,100985
2017-10-03T12:28:07.206Z,100975
2017-10-03T12:30:33.462Z,100974
2017-10-03T12:32:59.755Z,100975
2017-10-03T12:35:25.975Z,100976
2017-10-03T12:37:52.198Z,100981
2017-10-03T12:40:18.426Z,100988
2017-10-03T12:42:44.655Z,100985
2017-10-03T12:45:11.230Z,100993
2017-10-03T12:47:37.454Z,100994
2017-10-03T12:50:03.681Z,100995
2017-10-03T12:52:30.018Z,100988
2017-10-03T12:54:56.236Z,100996
2017-10-03T12:57:22.456Z,100990
2017-10-03T12:59:48.691Z,100980
2017-10-03T13:02:14.957Z,100989
2017-10-03T13:04:41.917Z,100998
2017-10-03T13:07:08.892Z,100994
2017-10-03T13:09:35.143Z,101002
2017-10-03T13:12:01.379Z,100999
2017-10-03T13:14:27.601Z,101006
2017-10-03T13:16:53.825Z,101002
2017-10-03T13:19:20.269Z,101000
2017-10-03T13:21:46.497Z,101001
2017-10-03T13:24:12.758Z,101008
2017-10-03T13:26:39.774Z,101005
2017-10-03T13:29:06.005Z,101007
2017-10-03T13:31:32.238Z,101008
2017-10-03T13:33:58.484Z,101001
2017-10-03T13:36:25.448Z,101015
2017-10-03T13:38:51.669Z,101014
2017-10-03T13:41:18.648Z,101003
2017-10-03T13:43:44.882Z,101011
2017-10-03T13:46:11.104Z,101022
2017-10-03T13:48:37.347Z,101026
2017-10-03T13:51:03.561Z,101040
2017-10-03T13:53:29.823Z,101037
2017-10-03T13:55:56.056Z,101041
2017-10-03T13:58:22.285Z,101030
2017-10-03T14:00:48.529Z,101032
2017-10-03T14:03:15.490Z,101040
2017-10-03T14:05:42.513Z,101069
2017-10-03T14:08:09.494Z,101071
2017-10-03T14:10:35.718Z,101077
2017-10-03T14:13:02.062Z,101093
2017-10-03T14:15:28.310Z,101091
2017-10-03T14:17:54.529Z,101091
2017-10-03T14:20:20.828Z,101085
2017-10-03T14:22:47.050Z,101087
2017-10-03T14:25:13.282Z,101086
2017-10-03T14:27:39.546Z,101091
2017-10-03T14:30:05.845Z,101094
2017-10-03T14:32:32.093Z,101094
2017-10-03T14:34:58.372Z,101090
2017-10-03T14:37:24.593Z,101090
2017-10-03T14:39:50.824Z,101093
2017-10-03T14:42:17.440Z,101105
2017-10-03T14:44:43.670Z,101104
2017-10-03T14:47:09.909Z,101101
2017-10-03T14:49:36.190Z,101109
2017-10-03T14:52:02.430Z,101117
2017-10-03T14:54:28.650Z,101120
2017-10-03T14:56:54.920Z,101117
2017-10-03T14:59:21.137Z,101113
2017-10-03T15:01:47.493Z,101117
2017-10-03T15:04:13.749Z,101113
2017-10-03T15:06:39.982Z,101114
2017-10-03T15:09:06.210Z,101118
2017-10-03T15:11:32.501Z,101125
2017-10-03T15:13:58.733Z,101132
2017-10-03T15:16:24.973Z,101132
2017-10-03T15:18:51.957Z,101132
2017-10-03T15:21:19.355Z,101132
2017-10-03T15:23:46.122Z,101147
2017-10-03T15:26:12.406Z,101148
2017-10-03T15:28:38.766Z,101144
2017-10-03T15:31:05.026Z,101159
2017-10-03T15:33:31.328Z,101173
2017-10-03T15:35:57.626Z,101177
2017-10-03T15:38:24.474Z,101187
2017-10-03T15:40:50.722Z,101182
2017-10-03T15:43:17.702Z,101194
2017-10-03T15:45:44.285Z,101205
2017-10-03T15:48:10.576Z,101205
2017-10-03T15:50:37.640Z,101187
2017-10-03T15:53:04.811Z,101210
2017-10-03T15:55:31.051Z,101213
2017-10-03T15:57:57.885Z,101229
2017-10-03T16:00:24.136Z,101234
2017-10-03T16:02:51.145Z,101248
2017-10-03T16:05:17.400Z,101242
2017-10-03T16:07:44.126Z,101228
2017-10-03T16:10:10.397Z,101231
2017-10-03T16:12:36.810Z,101234
2017-10-03T16:15:03.906Z,101234
2017-10-03T16:17:30.968Z,101231
2017-10-03T16:19:57.508Z,101234
2017-10-03T16:22:24.565Z,101229
2017-10-03T16:24:51.955Z,101223
2017-10-03T16:27:18.940Z,101228
2017-10-03T16:29:45.695Z,101230
2017-10-03T16:32:11.933Z,101231
2017-10-03T16:34:38.497Z,101233
2017-10-03T16:37:05.923Z,101232
2017-10-03T16:39:32.783Z,101236
2017-10-03T16:41:59.017Z,101244
2017-10-03T16:44:25.258Z,101251
2017-10-03T16:46:52.238Z,101254
2017-10-03T16:49:19.493Z,101257
2017-10-03T16:51:45.948Z,101260
2017-10-03T16:54:12.242Z,101257
2017-10-03T16:56:38.478Z,101256
2017-10-03T16:59:04.845Z,101256
2017-10-03T17:01:31.430Z,101256
2017-10-03T17:03:57.671Z,101261
2017-10-03T17:06:23.946Z,101282
2017-10-03T17:08:51.256Z,101269
2017-10-03T17:11:17.492Z,101277
2017-10-03T17:13:44.237Z,101278
2017-10-03T17:16:10.469Z,101276
2017-10-03T17:18:36.704Z,101281
2017-10-03T17:21:02.981Z,101280
2017-10-03T17:23:29.963Z,101287
2017-10-03T17:25:56.286Z,101292
2017-10-03T17:28:22.564Z,101293
2017-10-03T17:30:48.992Z,101286
2017-10-03T17:33:15.286Z,101298
2017-10-03T17:35:41.965Z,101296
2017-10-03T17:38:08.208Z,101297
2017-10-03T17:40:35.178Z,101296
2017-10-03T17:43:01.464Z,101298
2017-10-03T17:45:27.767Z,101296
2017-10-03T17:47:54.023Z,101295
2017-10-03T17:50:20.387Z,101304
2017-10-03T17:52:46.904Z,101309
2017-10-03T17:55:14.043Z,101312
2017-10-03T17:57:40.358Z,101308
2017-10-03T18:00:06.654Z,101307
2017-10-03T18:02:33.003Z,101306
2017-10-03T18:04:59.641Z,101300
2017-10-03T18:07:26.832Z,101311
2017-10-03T18:09:53.257Z,101311
2017-10-03T18:12:19.527Z,101313
2017-10-03T18:14:45.763Z,101320
2017-10-03T18:17:12.279Z,101317
2017-10-03T18:19:39.392Z,101318
2017-10-03T18:22:06.004Z,101323
2017-10-03T18:24:32.537Z,101334
2017-10-03T18:26:58.854Z,101331
2017-10-03T18:29:25.225Z,101333
2017-10-03T18:31:52.327Z,101332
2017-10-03T18:34:19.383Z,101340
2017-10-03T18:36:45.985Z,101336
2017-10-03T18:39:12.579Z,101345
2017-10-03T18:41:38.822Z,101347
2017-10-03T18:44:05.141Z,101346
2017-10-03T18:46:31.553Z,101346
2017-10-03T18:48:57.803Z,101346
2017-10-03T18:51:24.154Z,101359
2017-10-03T18:53:51.273Z,101358
2017-10-03T18:56:17.770Z,101361
2017-10-03T18:58:44.037Z,101365
2017-10-03T19:01:10.374Z,101365
2017-10-03T19:03:36.697Z,101356
2017-10-03T19:06:03.067Z,101361
2017-10-03T19:08:29.602Z,101367
2017-10-03T19:10:55.892Z,101364
2017-10-03T19:13:22.142Z,101362
2017-10-03T19:15:48.423Z,101359
2017-10-03T19:18:16.028Z,101358
2017-10-03T19:20:42.414Z,101363
2017-10-03T19:23:08.655Z,101367
2017-10-03T19:25:34.906Z,101373
2017-10-03T19:28:01.203Z,101384
2017-10-03T19:30:28.142Z,101380
2017-10-03T19:32:54.407Z,101382
2017-10-03T19:35:20.690Z,101386
2017-10-03T19:37:47.008Z,101391
2017-10-03T19:40:13.442Z,101395
2017-10-03T19:42:40.674Z,101402
2017-10-03T19:45:07.000Z,101394
2017-10-03T19:47:33.354Z,101394
2017-10-03T19:49:59.599Z,101394
2017-10-03T19:52:25.872Z,101398
2017-10-03T19:54:52.175Z,101392
2017-10-03T19:57:18.707Z,101394
2017-10-03T19:59:44.942Z,101398
2017-10-03T20:02:11.302Z,101398
2017-10-03T20:04:37.672Z,101402
2017-10-03T20:07:04.560Z,101406
2017-10-03T20:09:31.109Z,101407
2017-10-03T20:11:57.781Z,101402
2017-10-03T20:14:24.166Z,101405
2017-10-03T20:16:50.546Z,101402
2017-10-03T20:19:16.852Z,101410
2017-10-03T20:21:43.991Z,101408
2017-10-03T20:24:10.407Z,101409
2017-10-03T20:26:36.736Z,101413
2017-10-03T20:29:03.568Z,101420
2017-10-03T20:31:30.770Z,101408
2017-10-03T20:33:57.835Z,101413
2017-10-03T20:36:24.142Z,101418
2017-10-03T20:38:51.134Z,101414
2017-10-03T20:41:17.359Z,101407
2017-10-03T20:43:43.918Z,101403
2017-10-03T20:46:10.179Z,101408
2017-10-03T20:48:37.167Z,101406
2017-10-03T20:51:03.793Z,101406
2017-10-03T20:53:30.073Z,101408
2017-10-03T20:55:56.305Z,101407
2017-10-03T20:58:22.669Z,101417
2017-10-03T21:00:49.632Z,101413
2017-10-03T21:03:16.275Z,101411
2017-10-03T21:05:42.685Z,101409
2017-10-03T21:08:09.656Z,101412
2017-10-03T21:10:36.034Z,101412
2017-10-03T21:13:03.018Z,101418
2017-10-03T21:15:29.267Z,101405
2017-10-03T21:17:55.586Z,101408
2017-10-03T21:20:21.860Z,101411
2017-10-03T21:22:48.102Z,101408
2017-10-03T21:25:14.329Z,101407
2017-10-03T21:27:40.566Z,101406
2017-10-03T21:30:07.950Z,101406
2017-10-03T21:32:34.185Z,101407
2017-10-03T21:35:00.523Z,101413
2017-10-03T21:37:26.787Z,101407
2017-10-03T21:39:53.033Z,101406
2017-10-03T21:42:38.755Z,101408
2017-10-03T21:45:05.190Z,101419
2017-10-03T21:47:31.515Z,101416
2017-10-03T21:49:57.777Z,101430
2017-10-03T21:52:24.018Z,101430
2017-10-03T21:54:50.649Z,101429
2017-10-03T21:57:16.976Z,101426
2017-10-03T21:59:43.363Z,101424
2017-10-03T22:02:09.635Z,101417
2017-10-03T22:04:35.870Z,101423
2017-10-03T22:07:02.144Z,101424
2017-10-03T22:09:28.435Z,101423
2017-10-03T22:11:54.683Z,101429
2017-10-03T22:14:21.768Z,101433
2017-10-03T22:16:48.335Z,101426
2017-10-03T22:19:14.568Z,101425
2017-10-03T22:21:40.818Z,101427
2017-10-03T22:24:07.923Z,101428
2017-10-03T22:26:34.162Z,101431
2017-10-03T22:29:00.573Z,101435
2017-10-03T22:31:26.831Z,101436
2017-10-03T22:33:53.066Z,101425
2017-10-03T22:36:19.305Z,101428
2017-10-03T22:38:45.822Z,101428
2017-10-03T22:41:12.070Z,101426
2017-10-03T22:43:38.302Z,101422
2017-10-03T22:46:04.582Z,101418
2017-10-03T22:48:31.007Z,101418
2017-10-03T22:53:53.428Z,101438
2017-10-03T22:56:20.566Z,101425
2017-10-03T22:58:47.977Z,101425
2017-10-03T23:01:14.225Z,101431
2017-10-03T23:03:40.706Z,101425
2017-10-03T23:06:07.701Z,101436
2017-10-03T23:08:33.933Z,101444
2017-10-03T23:11:00.161Z,101439
2017-10-03T23:13:26.429Z,101432
2017-10-03T23:15:53.444Z,101432
2017-10-03T23:18:19.700Z,101435
2017-10-03T23:20:46.921Z,101434
2017-10-03T23:23:13.144Z,101422
2017-10-03T23:25:39.378Z,101426
2017-10-03T23:28:05.842Z,101427
2017-10-03T23:30:32.843Z,101418
2017-10-03T23:32:59.070Z,101416
2017-10-03T23:35:25.314Z,101414
2017-10-03T23:37:51.552Z,101422
2017-10-03T23:40:17.793Z,101424
2017-10-03T23:42:44.082Z,101422
2017-10-03T23:45:10.308Z,101436
2017-10-03T23:47:36.558Z,101428
2017-10-03T23:50:02.909Z,101423
2017-10-03T23:52:29.139Z,101427
2017-10-03T23:54:56.156Z,101429
2017-10-03T23:57:22.438Z,101430
2017-10-03T23:59:48.680Z,101422
